Terminal Aerodrome Forecast
Issued by NWS

Home | Current Version | Previous Version | Text Only | Print | Product List | Glossary On
Versions: 1 2 3 4 5 6 7 8 9 10 11 12 13 14 15 16 17 18 19 20 21 22 23 24 25
058
FTUS43 KBIS 260659 AAA
TAFMOT
TAF AMD
KMOT 260659Z 2607/2706 24008KT P6SM OVC006
     FM261200 27006KT P6SM OVC020
     FM261500 29010KT P6SM BKN050=

USA.gov is the U.S. government's official web portal to all federal, state and local government web resources and services.